createdAt,value
2024-03-12T00:01:11.530Z,8.15
2024-03-12T00:03:44.220Z,6.38
2024-03-12T00:06:11.198Z,7.72
2024-03-12T00:08:37.961Z,6.20
2024-03-12T00:11:07.342Z,7.03
2024-03-12T00:13:33.997Z,6.43
2024-03-12T00:16:01.750Z,6.57
2024-03-12T00:18:28.330Z,6.70
2024-03-12T00:20:54.934Z,7.20
2024-03-12T00:23:23.273Z,7.32
2024-03-12T00:25:50.327Z,6.35
2024-03-12T00:28:17.511Z,6.75
2024-03-12T00:30:44.048Z,7.40
2024-03-12T00:33:11.112Z,6.60
2024-03-12T00:35:40.016Z,8.20
2024-03-12T00:38:06.418Z,7.32
2024-03-12T00:40:37.564Z,6.45
2024-03-12T00:43:07.065Z,5.60
2024-03-12T00:45:42.536Z,5.80
2024-03-12T00:48:11.324Z,6.32
2024-03-12T00:50:38.764Z,7.45
2024-03-12T00:53:05.756Z,7.72
2024-03-12T00:55:32.734Z,6.88
2024-03-12T00:57:59.678Z,8.40
2024-03-12T01:00:27.859Z,7.63
2024-03-12T01:02:55.771Z,9.38
2024-03-12T01:05:27.698Z,9.52
2024-03-12T01:08:01.388Z,8.77
2024-03-12T01:10:29.643Z,9.77
2024-03-12T01:12:57.277Z,8.00
2024-03-12T01:15:24.945Z,10.27
2024-03-12T01:17:54.481Z,9.25
2024-03-12T01:20:22.105Z,8.07
2024-03-12T01:22:51.470Z,11.73
2024-03-12T01:25:19.109Z,10.13
2024-03-12T01:27:45.604Z,10.18
2024-03-12T01:30:15.470Z,11.43
2024-03-12T01:32:42.506Z,8.27
2024-03-12T01:35:09.554Z,9.45
2024-03-12T01:37:42.336Z,11.60
2024-03-12T01:40:26.916Z,11.00
2024-03-12T01:42:58.060Z,11.18
2024-03-12T01:45:25.784Z,10.63
2024-03-12T01:47:55.292Z,9.35
2024-03-12T01:50:23.067Z,8.50
2024-03-12T01:52:51.914Z,8.15
2024-03-12T01:55:19.718Z,9.40
2024-03-12T01:57:47.451Z,8.05
2024-03-12T02:00:15.921Z,10.07
2024-03-12T02:02:43.777Z,10.40
2024-03-12T02:05:11.569Z,9.63
2024-03-12T02:07:40.860Z,9.60
2024-03-12T02:10:08.777Z,8.93
2024-03-12T02:12:35.176Z,9.35
2024-03-12T02:15:04.485Z,8.43
2024-03-12T02:17:31.470Z,7.85
2024-03-12T02:19:58.304Z,11.18
2024-03-12T02:22:25.231Z,8.23
2024-03-12T02:24:52.450Z,8.70
2024-03-12T02:27:19.058Z,11.43
2024-03-12T02:29:45.753Z,11.07
2024-03-12T02:32:12.266Z,8.85
2024-03-12T02:34:38.730Z,11.40
2024-03-12T02:37:05.254Z,9.23
2024-03-12T02:39:31.782Z,10.57
2024-03-12T02:41:59.091Z,12.07
2024-03-12T02:44:25.690Z,9.70
2024-03-12T02:46:53.775Z,12.10
2024-03-12T02:49:21.390Z,12.38
2024-03-12T02:51:47.849Z,9.63
2024-03-12T02:54:14.466Z,11.77
2024-03-12T02:56:41.258Z,12.45
2024-03-12T02:59:10.139Z,12.63
2024-03-12T03:01:36.666Z,11.25
2024-03-12T03:04:04.005Z,10.85
2024-03-12T03:06:30.811Z,16.60
2024-03-12T03:08:59.567Z,10.07
2024-03-12T03:11:26.479Z,11.25
2024-03-12T03:13:52.887Z,8.57
2024-03-12T03:16:21.493Z,11.18
2024-03-12T03:18:48.060Z,9.40
2024-03-12T03:21:15.262Z,10.10
2024-03-12T03:23:43.270Z,8.95
2024-03-12T03:26:09.940Z,10.57
2024-03-12T03:28:36.319Z,11.40
2024-03-12T03:31:03.015Z,9.13
2024-03-12T03:33:29.636Z,9.27
2024-03-12T03:35:56.020Z,8.65
2024-03-12T03:38:22.452Z,12.38
2024-03-12T03:40:48.824Z,10.70
2024-03-12T03:43:15.425Z,11.00
2024-03-12T03:45:42.106Z,8.65
2024-03-12T03:48:08.693Z,11.80
2024-03-12T03:50:35.165Z,11.63
2024-03-12T03:53:01.529Z,12.23
2024-03-12T03:55:27.898Z,9.88
2024-03-12T03:57:54.739Z,11.32
2024-03-12T04:00:24.424Z,11.52
2024-03-12T04:02:51.146Z,10.57
2024-03-12T04:05:17.984Z,13.52
2024-03-12T04:07:45.474Z,16.77
2024-03-12T04:10:12.492Z,14.25
2024-03-12T04:12:42.452Z,14.57
2024-03-12T04:15:10.744Z,11.77
2024-03-12T04:17:38.404Z,12.50
2024-03-12T04:20:12.437Z,11.07
2024-03-12T04:22:39.822Z,16.25
2024-03-12T04:25:08.322Z,11.07
2024-03-12T04:27:38.574Z,15.43
2024-03-12T04:30:12.740Z,15.35
2024-03-12T04:32:40.391Z,12.90
2024-03-12T04:35:08.952Z,14.55
2024-03-12T04:37:35.417Z,11.50
2024-03-12T04:40:09.901Z,15.02
2024-03-12T04:42:38.122Z,17.30
2024-03-12T04:45:06.389Z,16.92
2024-03-12T04:47:34.066Z,17.25
2024-03-12T04:50:00.556Z,16.63
2024-03-12T04:52:26.930Z,13.65
2024-03-12T04:54:53.420Z,12.90
2024-03-12T04:57:20.662Z,15.23
2024-03-12T04:59:48.760Z,13.07
2024-03-12T05:02:16.329Z,13.20
2024-03-12T05:04:42.910Z,13.73
2024-03-12T05:07:09.741Z,13.63
2024-03-12T05:09:36.441Z,15.07
2024-03-12T05:12:03.065Z,16.05
2024-03-12T05:14:29.441Z,14.02
2024-03-12T05:16:56.213Z,15.27
2024-03-12T05:19:22.777Z,17.13
2024-03-12T05:21:49.202Z,14.68
2024-03-12T05:24:18.953Z,16.02
2024-03-12T05:26:46.073Z,16.13
2024-03-12T05:29:13.202Z,16.55
2024-03-12T05:31:39.934Z,19.42
2024-03-12T05:34:17.697Z,18.23
2024-03-12T05:36:49.706Z,16.20
2024-03-12T05:39:48.804Z,16.17
2024-03-12T05:42:34.051Z,18.90
2024-03-12T05:45:19.416Z,15.02
2024-03-12T05:48:04.275Z,14.65
2024-03-12T05:50:30.819Z,14.23
2024-03-12T05:52:57.619Z,13.98
2024-03-12T05:55:24.329Z,14.88
2024-03-12T05:57:50.851Z,13.82
2024-03-12T06:00:18.575Z,15.18
2024-03-12T06:02:45.780Z,16.00
2024-03-12T06:05:14.006Z,18.08
2024-03-12T06:07:49.445Z,17.23
2024-03-12T06:10:17.618Z,16.05
2024-03-12T06:12:44.318Z,13.02
2024-03-12T06:15:10.826Z,15.55
2024-03-12T06:17:37.987Z,14.88
2024-03-12T06:20:11.067Z,13.00
2024-03-12T06:22:38.018Z,16.60
2024-03-12T06:25:04.839Z,14.65
2024-03-12T06:27:31.731Z,14.77
2024-03-12T06:29:58.238Z,17.05
2024-03-12T06:32:26.272Z,17.20
2024-03-12T06:34:52.785Z,15.60
2024-03-12T06:37:19.941Z,13.27
2024-03-12T06:39:47.661Z,16.02
2024-03-12T06:42:14.247Z,16.80
2024-03-12T06:44:43.287Z,15.40
2024-03-12T06:47:13.576Z,15.35
2024-03-12T06:49:44.084Z,15.25
2024-03-12T06:54:37.821Z,14.27
2024-03-12T06:57:05.615Z,14.55
2024-03-12T06:59:36.471Z,15.15
2024-03-12T07:02:03.926Z,17.35
2024-03-12T07:04:44.137Z,13.98
2024-03-12T07:07:11.746Z,16.00
2024-03-12T07:09:42.437Z,14.80
2024-03-12T07:12:09.705Z,16.58
2024-03-12T07:14:44.719Z,14.27
2024-03-12T07:17:11.381Z,12.98
2024-03-12T07:19:39.210Z,14.45
2024-03-12T07:22:09.020Z,15.57
2024-03-12T07:24:39.130Z,13.57
2024-03-12T07:27:05.703Z,15.95
2024-03-12T07:29:33.702Z,12.43
2024-03-12T07:32:04.524Z,14.55
2024-03-12T07:34:31.637Z,14.13
2024-03-12T07:37:01.610Z,13.02
2024-03-12T07:39:38.273Z,12.57
2024-03-12T07:44:42.018Z,12.50
2024-03-12T07:47:08.439Z,15.90
2024-03-12T07:49:37.427Z,14.32
2024-03-12T07:52:03.879Z,14.10
2024-03-12T07:54:32.427Z,14.18
2024-03-12T07:57:00.405Z,11.50
2024-03-12T07:59:29.584Z,17.05
2024-03-12T08:01:58.373Z,13.40
2024-03-12T08:04:28.103Z,11.82
2024-03-12T08:06:54.765Z,16.20
2024-03-12T08:09:21.465Z,17.55
2024-03-12T08:11:49.212Z,17.90
2024-03-12T08:14:17.127Z,13.98
2024-03-12T08:16:44.215Z,13.68
2024-03-12T08:19:13.889Z,15.00
2024-03-12T08:21:40.709Z,17.13
2024-03-12T08:24:07.419Z,19.60
2024-03-12T08:26:33.913Z,13.43
2024-03-12T08:29:00.316Z,14.50
2024-03-12T08:31:33.298Z,13.63
2024-03-12T08:34:10.361Z,13.73
2024-03-12T08:36:37.367Z,13.50
2024-03-12T08:39:05.681Z,13.07
2024-03-12T08:41:33.997Z,13.63
2024-03-12T08:44:00.447Z,9.73
2024-03-12T08:46:26.874Z,14.57
2024-03-12T08:48:54.081Z,14.63
2024-03-12T08:51:20.618Z,12.77
2024-03-12T08:53:47.509Z,12.38
2024-03-12T08:56:13.926Z,14.07
2024-03-12T08:58:40.312Z,15.02
2024-03-12T09:01:06.755Z,12.88
2024-03-12T09:03:33.445Z,13.52
2024-03-12T09:06:01.043Z,13.85
2024-03-12T09:08:27.533Z,13.45
2024-03-12T09:10:54.459Z,9.95
2024-03-12T09:13:21.117Z,13.40
2024-03-12T09:15:52.680Z,13.02
2024-03-12T09:18:25.849Z,11.60
2024-03-12T09:20:55.172Z,12.18
2024-03-12T09:23:21.968Z,15.23
2024-03-12T09:25:48.461Z,12.57
2024-03-12T09:28:17.900Z,12.88
2024-03-12T09:30:44.511Z,11.77
2024-03-12T09:33:12.028Z,12.38
2024-03-12T09:35:38.957Z,10.68
2024-03-12T09:38:05.605Z,11.52
2024-03-12T09:40:33.044Z,10.98
2024-03-12T09:43:00.713Z,11.32
2024-03-12T09:45:27.440Z,11.07
2024-03-12T09:47:54.006Z,12.20
2024-03-12T09:50:24.226Z,10.32
2024-03-12T09:53:22.639Z,11.57
2024-03-12T09:55:49.398Z,14.25
2024-03-12T09:58:15.793Z,11.05
2024-03-12T10:00:42.833Z,15.93
2024-03-12T10:03:10.194Z,11.20
2024-03-12T10:05:39.089Z,11.32
2024-03-12T10:08:17.896Z,11.25
2024-03-12T10:10:49.395Z,10.80
2024-03-12T10:13:17.116Z,12.35
2024-03-12T10:16:01.375Z,10.82
2024-03-12T10:18:30.621Z,10.85
2024-03-12T10:20:58.650Z,13.77
2024-03-12T10:23:27.331Z,11.25
2024-03-12T10:26:07.777Z,13.23
2024-03-12T10:28:34.965Z,12.82
2024-03-12T10:31:13.047Z,12.57
2024-03-12T10:33:44.023Z,13.25
2024-03-12T10:38:40.743Z,11.00
2024-03-12T10:41:19.719Z,15.68
2024-03-12T10:43:58.333Z,15.50
2024-03-12T10:46:25.754Z,15.65
2024-03-12T10:48:53.533Z,14.82
2024-03-12T10:51:20.458Z,12.15
2024-03-12T10:53:54.251Z,14.45
2024-03-12T10:56:20.961Z,12.63
2024-03-12T10:58:48.330Z,13.27
2024-03-12T11:01:17.703Z,16.05
2024-03-12T11:03:45.068Z,14.38
2024-03-12T11:06:14.506Z,13.18
2024-03-12T11:08:43.544Z,14.80
2024-03-12T11:11:10.633Z,14.98
2024-03-12T11:13:37.419Z,14.65
2024-03-12T11:16:14.194Z,17.52
2024-03-12T11:18:41.128Z,16.02
2024-03-12T11:21:31.882Z,16.67
2024-03-12T11:23:59.028Z,14.25
2024-03-12T11:29:00.083Z,13.10
2024-03-12T11:31:35.997Z,14.45
2024-03-12T11:34:02.413Z,15.70
2024-03-12T11:36:32.528Z,12.73
2024-03-12T11:39:13.771Z,13.05
2024-03-12T11:42:00.603Z,12.43
2024-03-12T11:44:50.897Z,12.02
2024-03-12T11:47:38.123Z,12.98
2024-03-12T11:50:25.581Z,11.60
2024-03-12T11:52:52.184Z,11.52
2024-03-12T11:55:53.488Z,13.30
2024-03-12T11:58:21.441Z,13.75
2024-03-12T12:00:51.818Z,10.88
2024-03-12T12:03:18.449Z,13.32
2024-03-12T12:05:48.450Z,13.27
2024-03-12T12:08:17.659Z,10.48
2024-03-12T12:10:56.488Z,10.35
2024-03-12T12:13:24.146Z,13.77
2024-03-12T12:16:03.895Z,12.23
2024-03-12T12:18:31.606Z,12.13
2024-03-12T12:21:01.173Z,13.30
2024-03-12T12:23:28.746Z,14.32
2024-03-12T12:25:56.225Z,13.85
2024-03-12T12:28:26.934Z,14.88
2024-03-12T12:30:57.959Z,13.25
2024-03-12T12:33:26.622Z,14.20
2024-03-12T12:35:56.069Z,12.70
2024-03-12T12:38:24.707Z,11.65
2024-03-12T12:40:52.072Z,11.93
2024-03-12T12:43:18.545Z,12.10
2024-03-12T12:45:47.426Z,13.30
2024-03-12T12:48:18.973Z,14.18
2024-03-12T12:50:55.765Z,12.02
2024-03-12T12:53:24.740Z,14.70
2024-03-12T12:56:01.117Z,15.10
2024-03-12T12:58:29.359Z,13.50
2024-03-12T13:01:07.249Z,14.23
2024-03-12T13:03:41.733Z,13.70
2024-03-12T13:06:22.512Z,12.25
2024-03-12T13:08:52.625Z,12.43
2024-03-12T13:11:23.303Z,13.35
2024-03-12T13:13:52.086Z,12.48
2024-03-12T13:16:21.313Z,13.48
2024-03-12T13:18:49.541Z,13.25
2024-03-12T13:21:26.047Z,14.45
2024-03-12T13:26:24.477Z,11.70
2024-03-12T13:28:55.074Z,12.88
2024-03-12T13:31:24.729Z,13.32
2024-03-12T13:33:52.120Z,12.80
2024-03-12T13:36:20.388Z,10.98
2024-03-12T13:38:46.779Z,11.50
2024-03-12T13:41:14.283Z,10.43
2024-03-12T13:43:43.150Z,10.68
2024-03-12T13:46:10.200Z,13.02
2024-03-12T13:48:38.156Z,12.13
2024-03-12T13:51:05.837Z,12.60
2024-03-12T13:53:32.464Z,13.73
2024-03-12T13:56:00.503Z,12.32
2024-03-12T13:58:27.197Z,11.48
2024-03-12T14:00:58.715Z,12.43
2024-03-12T14:03:28.603Z,13.35
2024-03-12T14:05:56.120Z,11.68
2024-03-12T14:08:24.147Z,14.80
2024-03-12T14:10:52.976Z,13.35
2024-03-12T14:13:22.378Z,13.85
2024-03-12T14:15:51.924Z,11.77
2024-03-12T14:18:22.688Z,13.75
2024-03-12T14:20:52.528Z,13.60
2024-03-12T14:23:19.916Z,12.52
2024-03-12T14:25:46.608Z,14.60
2024-03-12T14:28:13.027Z,13.30
2024-03-12T14:30:42.683Z,12.20
2024-03-12T14:33:13.390Z,14.00
2024-03-12T14:35:40.145Z,12.35
2024-03-12T14:38:06.678Z,13.77
2024-03-12T14:40:33.077Z,12.40
2024-03-12T14:43:01.587Z,13.02
2024-03-12T14:45:28.788Z,12.40
2024-03-12T14:47:56.114Z,12.95
2024-03-12T14:50:23.410Z,11.77
2024-03-12T14:52:49.802Z,12.63
2024-03-12T14:55:16.281Z,14.35
2024-03-12T14:57:42.777Z,13.82
2024-03-12T15:00:10.823Z,13.93
2024-03-12T15:02:37.937Z,11.23
2024-03-12T15:05:12.258Z,12.65
2024-03-12T15:07:44.823Z,13.55
2024-03-12T15:10:12.580Z,11.35
2024-03-12T15:12:41.359Z,12.85
2024-03-12T15:15:13.103Z,12.65
2024-03-12T15:17:41.344Z,11.80
2024-03-12T15:20:15.414Z,15.00
2024-03-12T15:22:50.302Z,15.00
2024-03-12T15:25:20.167Z,11.88
2024-03-12T15:27:47.865Z,12.65
2024-03-12T15:30:17.502Z,11.93
2024-03-12T15:32:44.222Z,11.13
2024-03-12T15:35:15.254Z,11.60
2024-03-12T15:37:43.240Z,11.23
2024-03-12T15:40:10.269Z,10.85
2024-03-12T15:42:38.743Z,10.90
2024-03-12T15:45:10.600Z,14.95
2024-03-12T15:47:44.686Z,10.90
2024-03-12T15:50:16.509Z,12.27
2024-03-12T15:52:43.207Z,11.48
2024-03-12T15:55:10.958Z,12.10
2024-03-12T15:57:40.049Z,10.80
2024-03-12T16:00:08.234Z,12.60
2024-03-12T16:02:35.629Z,13.50
2024-03-12T16:05:05.872Z,11.60
2024-03-12T16:07:35.266Z,11.73
2024-03-12T16:10:03.089Z,12.68
2024-03-12T16:12:29.930Z,12.68
2024-03-12T16:14:56.398Z,11.90
2024-03-12T16:17:23.042Z,12.93
2024-03-12T16:19:50.063Z,14.88
2024-03-12T16:22:16.621Z,14.13
2024-03-12T16:24:43.025Z,14.25
2024-03-12T16:27:09.493Z,9.65
2024-03-12T16:29:38.687Z,13.60
2024-03-12T16:32:08.630Z,14.00
2024-03-12T16:34:35.090Z,12.70
2024-03-12T16:37:02.786Z,10.68
2024-03-12T16:39:29.944Z,12.05
2024-03-12T16:41:59.424Z,12.88
2024-03-12T16:44:32.031Z,12.07
2024-03-12T16:47:05.285Z,12.10
2024-03-12T16:49:32.725Z,10.38
2024-03-12T16:51:59.561Z,12.30
2024-03-12T16:54:28.832Z,13.35
2024-03-12T16:56:56.793Z,13.40
2024-03-12T16:59:23.473Z,13.05
2024-03-12T17:01:50.302Z,13.30
2024-03-12T17:04:17.247Z,14.48
2024-03-12T17:06:44.631Z,12.23
2024-03-12T17:09:11.399Z,12.63
2024-03-12T17:11:38.934Z,12.35
2024-03-12T17:14:10.239Z,13.02
2024-03-12T17:16:41.398Z,13.43
2024-03-12T17:19:08.061Z,11.77
2024-03-12T17:21:39.373Z,12.00
2024-03-12T17:24:06.174Z,11.52
2024-03-12T17:26:37.679Z,12.52
2024-03-12T17:29:05.127Z,12.57
2024-03-12T17:31:32.428Z,12.07
2024-03-12T17:33:59.161Z,11.07
2024-03-12T17:36:26.836Z,9.05
2024-03-12T17:38:53.570Z,9.57
2024-03-12T17:41:20.419Z,11.27
2024-03-12T17:43:47.053Z,11.75
2024-03-12T17:46:18.394Z,9.30
2024-03-12T17:48:45.412Z,12.55
2024-03-12T17:51:12.334Z,12.13
2024-03-12T17:53:39.046Z,12.05
2024-03-12T17:56:06.885Z,11.18
2024-03-12T17:58:38.418Z,11.35
2024-03-12T18:01:06.427Z,12.90
2024-03-12T18:03:33.975Z,10.98
2024-03-12T18:06:04.457Z,11.27
2024-03-12T18:08:37.672Z,11.88
2024-03-12T18:11:09.258Z,14.18
2024-03-12T18:13:36.143Z,12.68
2024-03-12T18:16:02.557Z,12.23
2024-03-12T18:18:31.686Z,11.65
2024-03-12T18:20:58.306Z,12.05
2024-03-12T18:23:24.995Z,11.32
2024-03-12T18:25:51.421Z,13.85
2024-03-12T18:28:17.850Z,13.77
2024-03-12T18:30:44.335Z,13.50
2024-03-12T18:33:12.359Z,13.02
2024-03-12T18:35:38.928Z,12.73
2024-03-12T18:38:06.874Z,13.85
2024-03-12T18:40:33.415Z,12.20
2024-03-12T18:43:01.806Z,12.02
2024-03-12T18:45:28.617Z,13.60
2024-03-12T18:47:56.266Z,12.48
2024-03-12T18:50:25.468Z,13.25
2024-03-12T18:52:58.312Z,11.80
2024-03-12T18:55:27.660Z,12.43
2024-03-12T18:57:54.620Z,12.65
2024-03-12T19:00:24.241Z,11.75
2024-03-12T19:02:52.921Z,10.90
2024-03-12T19:05:21.537Z,12.30
2024-03-12T19:07:50.090Z,11.40
2024-03-12T19:10:17.882Z,11.00
2024-03-12T19:12:45.483Z,10.00
2024-03-12T19:15:15.529Z,10.73
2024-03-12T19:17:47.164Z,9.10
2024-03-12T19:20:20.356Z,9.43
2024-03-12T19:22:51.496Z,8.38
2024-03-12T19:25:19.978Z,8.95
2024-03-12T19:27:49.287Z,8.32
2024-03-12T19:30:20.670Z,8.70
2024-03-12T19:32:51.493Z,6.53
2024-03-12T19:35:18.978Z,7.03
2024-03-12T19:37:49.542Z,9.27
2024-03-12T19:40:22.258Z,7.47
2024-03-12T19:42:49.841Z,7.70
2024-03-12T19:45:28.523Z,8.30
2024-03-12T19:47:57.159Z,9.57
2024-03-12T19:50:26.006Z,9.48
2024-03-12T19:52:53.885Z,8.65
2024-03-12T19:55:31.599Z,10.55
2024-03-12T19:58:05.357Z,7.55
2024-03-12T20:00:34.336Z,6.80
2024-03-12T20:03:06.482Z,8.15
2024-03-12T20:05:33.652Z,7.55
2024-03-12T20:08:05.924Z,11.70
2024-03-12T20:10:33.364Z,6.93
2024-03-12T20:13:00.261Z,9.18
2024-03-12T20:15:28.942Z,8.30
2024-03-12T20:17:55.354Z,8.20
2024-03-12T20:20:23.461Z,12.93
2024-03-12T20:22:54.176Z,10.35
2024-03-12T20:25:22.945Z,11.90
2024-03-12T20:27:56.511Z,12.38
2024-03-12T20:30:28.498Z,14.95
2024-03-12T20:32:59.821Z,13.73
2024-03-12T20:35:28.755Z,12.85
2024-03-12T20:37:56.152Z,15.05
2024-03-12T20:40:25.818Z,15.82
2024-03-12T20:42:53.302Z,13.50
2024-03-12T20:45:22.889Z,14.85
2024-03-12T20:47:50.229Z,12.10
2024-03-12T20:50:19.958Z,12.27
2024-03-12T20:52:50.082Z,11.57
2024-03-12T20:55:17.138Z,11.80
2024-03-12T20:57:47.517Z,12.70
2024-03-12T21:02:52.952Z,13.23
2024-03-12T21:05:19.626Z,9.95
2024-03-12T21:07:46.170Z,10.75
2024-03-12T21:10:13.298Z,10.82
2024-03-12T21:12:40.272Z,10.20
2024-03-12T21:15:23.601Z,11.30
2024-03-12T21:17:50.180Z,10.40
2024-03-12T21:20:23.154Z,14.13
2024-03-12T21:22:50.564Z,11.60
2024-03-12T21:25:18.538Z,12.73
2024-03-12T21:27:45.942Z,11.32
2024-03-12T21:30:18.969Z,11.65
2024-03-12T21:32:46.111Z,11.68
2024-03-12T21:35:13.046Z,10.93
2024-03-12T21:37:53.678Z,12.38
2024-03-12T21:40:20.556Z,11.85
2024-03-12T21:42:47.539Z,10.95
2024-03-12T21:45:16.366Z,12.60
2024-03-12T21:47:43.791Z,11.82
2024-03-12T21:50:15.582Z,12.32
2024-03-12T21:52:42.540Z,12.43
2024-03-12T21:55:11.285Z,12.57
2024-03-12T21:57:39.484Z,13.82
2024-03-12T22:00:13.115Z,10.95
2024-03-12T22:02:40.186Z,12.77
2024-03-12T22:05:06.905Z,10.88
2024-03-12T22:07:37.644Z,12.13
2024-03-12T22:10:04.720Z,11.15
2024-03-12T22:12:35.657Z,11.40
2024-03-12T22:15:02.139Z,10.30
2024-03-12T22:17:30.105Z,10.45
2024-03-12T22:19:56.516Z,10.75
2024-03-12T22:22:23.509Z,13.98
2024-03-12T22:24:50.154Z,11.55
2024-03-12T22:27:16.607Z,12.40
2024-03-12T22:29:43.019Z,10.27
2024-03-12T22:32:15.083Z,9.80
2024-03-12T22:34:42.059Z,9.20
2024-03-12T22:37:09.976Z,9.05
2024-03-12T22:39:37.621Z,8.77
2024-03-12T22:42:05.807Z,8.30
2024-03-12T22:44:32.339Z,10.70
2024-03-12T22:47:00.170Z,9.20
2024-03-12T22:49:27.070Z,7.05
2024-03-12T22:51:56.451Z,10.93
2024-03-12T22:54:24.103Z,10.40
2024-03-12T22:56:50.691Z,9.93
2024-03-12T22:59:19.725Z,9.85
2024-03-12T23:01:52.539Z,9.25
2024-03-12T23:04:19.383Z,10.55
2024-03-12T23:06:46.125Z,8.82
2024-03-12T23:09:14.647Z,8.88
2024-03-12T23:11:42.476Z,9.55
2024-03-12T23:14:10.501Z,7.53
2024-03-12T23:16:36.890Z,8.38
2024-03-12T23:19:03.344Z,9.15
2024-03-12T23:21:29.934Z,7.78
2024-03-12T23:23:57.760Z,8.38
2024-03-12T23:26:24.504Z,8.10
2024-03-12T23:28:50.912Z,9.32
2024-03-12T23:31:18.075Z,8.30
2024-03-12T23:33:45.189Z,8.80
2024-03-12T23:36:12.450Z,8.05
2024-03-12T23:38:39.657Z,7.47
2024-03-12T23:41:07.939Z,11.23
2024-03-12T23:43:34.951Z,8.35
2024-03-12T23:46:01.372Z,5.80
2024-03-12T23:48:27.946Z,6.63
2024-03-12T23:50:54.731Z,7.15
2024-03-12T23:53:21.561Z,7.30
2024-03-12T23:55:47.930Z,8.35
2024-03-12T23:58:16.280Z,7.78
